sensor_id;sensor_type;location;lat;lon;timestamp;temperature;humidity
19200;DHT22;9732;52.498;5.408;2024-01-06T00:01:24;6.00;99.90
19200;DHT22;9732;52.498;5.408;2024-01-06T00:03:52;6.00;99.90
19200;DHT22;9732;52.498;5.408;2024-01-06T00:06:18;5.90;99.90
19200;DHT22;9732;52.498;5.408;2024-01-06T00:08:45;5.90;99.90
19200;DHT22;9732;52.498;5.408;2024-01-06T00:11:12;5.90;99.90
19200;DHT22;9732;52.498;5.408;2024-01-06T00:13:38;5.90;99.90
19200;DHT22;9732;52.498;5.408;2024-01-06T00:16:05;5.90;99.90
19200;DHT22;9732;52.498;5.408;2024-01-06T00:18:32;5.90;99.90
19200;DHT22;9732;52.498;5.408;2024-01-06T00:21:00;5.80;99.90
19200;DHT22;9732;52.498;5.408;2024-01-06T00:23:27;5.80;99.90
19200;DHT22;9732;52.498;5.408;2024-01-06T00:25:54;5.80;99.90
19200;DHT22;9732;52.498;5.408;2024-01-06T00:28:20;5.80;99.90
19200;DHT22;9732;52.498;5.408;2024-01-06T00:30:47;5.80;99.90
19200;DHT22;9732;52.498;5.408;2024-01-06T00:33:14;5.80;99.90
19200;DHT22;9732;52.498;5.408;2024-01-06T00:35:41;5.80;99.90
19200;DHT22;9732;52.498;5.408;2024-01-06T00:38:09;5.80;99.90
19200;DHT22;9732;52.498;5.408;2024-01-06T00:40:35;5.80;99.90
19200;DHT22;9732;52.498;5.408;2024-01-06T00:43:02;5.80;99.90
19200;DHT22;9732;52.498;5.408;2024-01-06T00:45:29;5.80;99.90
19200;DHT22;9732;52.498;5.408;2024-01-06T00:47:56;5.80;99.90
19200;DHT22;9732;52.498;5.408;2024-01-06T00:50:23;5.80;99.90
19200;DHT22;9732;52.498;5.408;2024-01-06T00:52:49;5.90;99.90
19200;DHT22;9732;52.498;5.408;2024-01-06T00:55:19;5.80;99.90
19200;DHT22;9732;52.498;5.408;2024-01-06T00:57:45;5.80;99.90
19200;DHT22;9732;52.498;5.408;2024-01-06T01:00:13;5.80;99.90
19200;DHT22;9732;52.498;5.408;2024-01-06T01:02:40;5.70;99.90
19200;DHT22;9732;52.498;5.408;2024-01-06T01:05:07;5.80;99.90
19200;DHT22;9732;52.498;5.408;2024-01-06T01:07:34;5.80;99.90
19200;DHT22;9732;52.498;5.408;2024-01-06T01:10:01;5.80;99.90
19200;DHT22;9732;52.498;5.408;2024-01-06T01:12:29;5.90;99.90
19200;DHT22;9732;52.498;5.408;2024-01-06T01:14:55;5.80;99.90
19200;DHT22;9732;52.498;5.408;2024-01-06T01:17:22;5.80;99.90
19200;DHT22;9732;52.498;5.408;2024-01-06T01:19:49;5.80;99.90
19200;DHT22;9732;52.498;5.408;2024-01-06T01:22:15;5.80;99.90
19200;DHT22;9732;52.498;5.408;2024-01-06T01:24:42;5.80;99.90
19200;DHT22;9732;52.498;5.408;2024-01-06T01:27:09;5.80;99.90
19200;DHT22;9732;52.498;5.408;2024-01-06T01:29:37;5.80;99.90
19200;DHT22;9732;52.498;5.408;2024-01-06T01:32:05;5.80;99.90
19200;DHT22;9732;52.498;5.408;2024-01-06T01:34:32;5.70;99.90
19200;DHT22;9732;52.498;5.408;2024-01-06T01:36:59;5.70;99.90
19200;DHT22;9732;52.498;5.408;2024-01-06T01:39:26;5.70;99.90
19200;DHT22;9732;52.498;5.408;2024-01-06T01:41:53;5.70;99.90
19200;DHT22;9732;52.498;5.408;2024-01-06T01:44:20;5.70;99.90
19200;DHT22;9732;52.498;5.408;2024-01-06T01:46:48;5.70;99.90
19200;DHT22;9732;52.498;5.408;2024-01-06T01:49:15;5.70;99.90
19200;DHT22;9732;52.498;5.408;2024-01-06T01:51:42;5.70;99.90
19200;DHT22;9732;52.498;5.408;2024-01-06T01:54:10;5.70;99.90
19200;DHT22;9732;52.498;5.408;2024-01-06T01:56:38;5.70;99.90
19200;DHT22;9732;52.498;5.408;2024-01-06T01:59:09;5.60;99.90
19200;DHT22;9732;52.498;5.408;2024-01-06T02:01:37;5.70;99.90
19200;DHT22;9732;52.498;5.408;2024-01-06T02:04:05;5.60;99.90
19200;DHT22;9732;52.498;5.408;2024-01-06T02:06:32;5.70;99.90
19200;DHT22;9732;52.498;5.408;2024-01-06T02:09:00;5.70;99.90
19200;DHT22;9732;52.498;5.408;2024-01-06T02:11:27;5.70;99.90
19200;DHT22;9732;52.498;5.408;2024-01-06T02:13:54;5.60;99.90
19200;DHT22;9732;52.498;5.408;2024-01-06T02:16:23;5.70;99.90
19200;DHT22;9732;52.498;5.408;2024-01-06T02:18:50;5.60;99.90
19200;DHT22;9732;52.498;5.408;2024-01-06T02:21:21;5.70;99.90
19200;DHT22;9732;52.498;5.408;2024-01-06T02:23:50;5.60;99.90
19200;DHT22;9732;52.498;5.408;2024-01-06T02:26:17;5.70;99.90
19200;DHT22;9732;52.498;5.408;2024-01-06T02:28:45;5.60;99.90
19200;DHT22;9732;52.498;5.408;2024-01-06T02:31:14;5.60;99.90
19200;DHT22;9732;52.498;5.408;2024-01-06T02:33:42;5.60;99.90
19200;DHT22;9732;52.498;5.408;2024-01-06T02:36:08;5.60;99.90
19200;DHT22;9732;52.498;5.408;2024-01-06T02:38:36;5.60;99.90
19200;DHT22;9732;52.498;5.408;2024-01-06T02:41:05;5.50;99.90
19200;DHT22;9732;52.498;5.408;2024-01-06T02:43:32;5.50;99.90
19200;DHT22;9732;52.498;5.408;2024-01-06T02:46:01;5.40;99.90
19200;DHT22;9732;52.498;5.408;2024-01-06T02:48:28;5.50;99.90
19200;DHT22;9732;52.498;5.408;2024-01-06T02:50:56;5.50;99.90
19200;DHT22;9732;52.498;5.408;2024-01-06T02:53:22;5.50;99.90
19200;DHT22;9732;52.498;5.408;2024-01-06T02:55:50;5.50;99.90
19200;DHT22;9732;52.498;5.408;2024-01-06T02:58:20;5.50;99.90
19200;DHT22;9732;52.498;5.408;2024-01-06T03:00:48;5.50;99.90
19200;DHT22;9732;52.498;5.408;2024-01-06T03:03:17;5.50;99.90
19200;DHT22;9732;52.498;5.408;2024-01-06T03:05:44;5.50;99.90
19200;DHT22;9732;52.498;5.408;2024-01-06T03:08:14;5.50;99.90
19200;DHT22;9732;52.498;5.408;2024-01-06T03:10:43;5.50;99.90
19200;DHT22;9732;52.498;5.408;2024-01-06T03:13:11;5.50;99.90
19200;DHT22;9732;52.498;5.408;2024-01-06T03:15:42;5.50;99.90
19200;DHT22;9732;52.498;5.408;2024-01-06T03:18:09;5.40;99.90
19200;DHT22;9732;52.498;5.408;2024-01-06T03:20:36;5.50;99.90
19200;DHT22;9732;52.498;5.408;2024-01-06T03:23:03;5.40;99.90
19200;DHT22;9732;52.498;5.408;2024-01-06T03:25:31;5.40;99.90
19200;DHT22;9732;52.498;5.408;2024-01-06T03:27:58;5.40;99.90
19200;DHT22;9732;52.498;5.408;2024-01-06T03:30:25;5.50;99.90
19200;DHT22;9732;52.498;5.408;2024-01-06T03:32:53;5.40;99.90
19200;DHT22;9732;52.498;5.408;2024-01-06T03:35:21;5.40;99.90
19200;DHT22;9732;52.498;5.408;2024-01-06T03:37:49;5.40;99.90
19200;DHT22;9732;52.498;5.408;2024-01-06T03:40:16;5.30;99.90
19200;DHT22;9732;52.498;5.408;2024-01-06T03:42:43;5.30;99.90
19200;DHT22;9732;52.498;5.408;2024-01-06T03:45:10;5.30;99.90
19200;DHT22;9732;52.498;5.408;2024-01-06T03:47:38;5.20;99.90
19200;DHT22;9732;52.498;5.408;2024-01-06T03:50:08;5.30;99.90
19200;DHT22;9732;52.498;5.408;2024-01-06T03:52:37;5.30;99.90
19200;DHT22;9732;52.498;5.408;2024-01-06T03:55:06;5.30;99.90
19200;DHT22;9732;52.498;5.408;2024-01-06T03:57:33;5.20;99.90
19200;DHT22;9732;52.498;5.408;2024-01-06T04:00:00;5.30;99.90
19200;DHT22;9732;52.498;5.408;2024-01-06T04:02:29;5.30;99.90
19200;DHT22;9732;52.498;5.408;2024-01-06T04:04:56;5.30;99.90
19200;DHT22;9732;52.498;5.408;2024-01-06T04:07:26;5.30;99.90
19200;DHT22;9732;52.498;5.408;2024-01-06T04:09:56;5.20;99.90
19200;DHT22;9732;52.498;5.408;2024-01-06T04:12:25;5.30;99.90
19200;DHT22;9732;52.498;5.408;2024-01-06T04:14:52;5.30;99.90
19200;DHT22;9732;52.498;5.408;2024-01-06T04:17:20;5.20;99.90
19200;DHT22;9732;52.498;5.408;2024-01-06T04:19:49;5.20;99.90
19200;DHT22;9732;52.498;5.408;2024-01-06T04:22:18;5.20;99.90
19200;DHT22;9732;52.498;5.408;2024-01-06T04:24:48;5.20;99.90
19200;DHT22;9732;52.498;5.408;2024-01-06T04:27:17;5.20;99.90
19200;DHT22;9732;52.498;5.408;2024-01-06T04:29:44;5.20;99.90
19200;DHT22;9732;52.498;5.408;2024-01-06T04:32:11;5.20;99.90
19200;DHT22;9732;52.498;5.408;2024-01-06T04:34:39;5.30;99.90
19200;DHT22;9732;52.498;5.408;2024-01-06T04:37:07;5.30;99.90
19200;DHT22;9732;52.498;5.408;2024-01-06T04:39:34;5.20;99.90
19200;DHT22;9732;52.498;5.408;2024-01-06T04:42:02;5.10;99.90
19200;DHT22;9732;52.498;5.408;2024-01-06T04:44:30;5.10;99.90
19200;DHT22;9732;52.498;5.408;2024-01-06T04:46:57;5.10;99.90
19200;DHT22;9732;52.498;5.408;2024-01-06T04:49:25;5.20;99.90
19200;DHT22;9732;52.498;5.408;2024-01-06T04:51:52;5.20;99.90
19200;DHT22;9732;52.498;5.408;2024-01-06T04:54:19;5.20;99.90
19200;DHT22;9732;52.498;5.408;2024-01-06T04:56:47;5.10;99.90
19200;DHT22;9732;52.498;5.408;2024-01-06T04:59:16;5.10;99.90
19200;DHT22;9732;52.498;5.408;2024-01-06T05:01:45;5.20;99.90
19200;DHT22;9732;52.498;5.408;2024-01-06T05:04:13;5.20;99.90
19200;DHT22;9732;52.498;5.408;2024-01-06T05:06:40;5.20;99.90
19200;DHT22;9732;52.498;5.408;2024-01-06T05:09:09;5.20;99.90
19200;DHT22;9732;52.498;5.408;2024-01-06T05:11:37;5.10;99.90
19200;DHT22;9732;52.498;5.408;2024-01-06T05:14:06;5.10;99.90
19200;DHT22;9732;52.498;5.408;2024-01-06T05:16:35;5.00;99.90
19200;DHT22;9732;52.498;5.408;2024-01-06T05:19:03;5.10;99.90
19200;DHT22;9732;52.498;5.408;2024-01-06T05:21:30;5.00;99.90
19200;DHT22;9732;52.498;5.408;2024-01-06T05:23:57;5.00;99.90
19200;DHT22;9732;52.498;5.408;2024-01-06T05:26:24;5.00;99.90
19200;DHT22;9732;52.498;5.408;2024-01-06T05:28:53;5.00;99.90
19200;DHT22;9732;52.498;5.408;2024-01-06T05:31:20;5.00;99.90
19200;DHT22;9732;52.498;5.408;2024-01-06T05:33:48;5.10;99.90
19200;DHT22;9732;52.498;5.408;2024-01-06T05:36:19;5.20;99.90
19200;DHT22;9732;52.498;5.408;2024-01-06T05:38:47;5.10;99.90
19200;DHT22;9732;52.498;5.408;2024-01-06T05:41:14;5.10;99.90
19200;DHT22;9732;52.498;5.408;2024-01-06T05:43:41;5.10;99.90
19200;DHT22;9732;52.498;5.408;2024-01-06T05:46:08;5.10;99.90
19200;DHT22;9732;52.498;5.408;2024-01-06T05:48:36;5.10;99.90
19200;DHT22;9732;52.498;5.408;2024-01-06T05:51:06;5.10;99.90
19200;DHT22;9732;52.498;5.408;2024-01-06T05:53:33;5.10;99.90
19200;DHT22;9732;52.498;5.408;2024-01-06T05:56:03;5.10;99.90
19200;DHT22;9732;52.498;5.408;2024-01-06T05:58:34;5.10;99.90
19200;DHT22;9732;52.498;5.408;2024-01-06T06:01:01;5.00;99.90
19200;DHT22;9732;52.498;5.408;2024-01-06T06:03:28;5.10;99.90
19200;DHT22;9732;52.498;5.408;2024-01-06T06:05:55;5.10;99.90
19200;DHT22;9732;52.498;5.408;2024-01-06T06:08:23;5.10;99.90
19200;DHT22;9732;52.498;5.408;2024-01-06T06:10:50;5.10;99.90
19200;DHT22;9732;52.498;5.408;2024-01-06T06:13:28;5.00;99.90
19200;DHT22;9732;52.498;5.408;2024-01-06T06:15:56;5.00;99.90
19200;DHT22;9732;52.498;5.408;2024-01-06T06:18:23;5.00;99.90
19200;DHT22;9732;52.498;5.408;2024-01-06T06:20:50;5.00;99.90
19200;DHT22;9732;52.498;5.408;2024-01-06T06:23:18;5.00;99.90
19200;DHT22;9732;52.498;5.408;2024-01-06T06:25:48;5.00;99.90
19200;DHT22;9732;52.498;5.408;2024-01-06T06:28:15;5.10;99.90
19200;DHT22;9732;52.498;5.408;2024-01-06T06:30:43;5.10;99.90
19200;DHT22;9732;52.498;5.408;2024-01-06T06:33:10;5.10;99.90
19200;DHT22;9732;52.498;5.408;2024-01-06T06:35:37;5.10;99.90
19200;DHT22;9732;52.498;5.408;2024-01-06T06:38:04;5.10;99.90
19200;DHT22;9732;52.498;5.408;2024-01-06T06:40:30;5.10;99.90
19200;DHT22;9732;52.498;5.408;2024-01-06T06:43:01;5.20;99.90
19200;DHT22;9732;52.498;5.408;2024-01-06T06:45:27;5.20;99.90
19200;DHT22;9732;52.498;5.408;2024-01-06T06:47:54;5.10;99.90
19200;DHT22;9732;52.498;5.408;2024-01-06T06:50:21;5.10;99.90
19200;DHT22;9732;52.498;5.408;2024-01-06T06:52:48;5.20;99.90
19200;DHT22;9732;52.498;5.408;2024-01-06T06:55:14;5.20;99.90
19200;DHT22;9732;52.498;5.408;2024-01-06T06:57:41;5.20;99.90
19200;DHT22;9732;52.498;5.408;2024-01-06T07:00:10;5.20;99.90
19200;DHT22;9732;52.498;5.408;2024-01-06T07:02:37;5.20;99.90
19200;DHT22;9732;52.498;5.408;2024-01-06T07:05:04;5.20;99.90
19200;DHT22;9732;52.498;5.408;2024-01-06T07:07:32;5.10;99.90
19200;DHT22;9732;52.498;5.408;2024-01-06T07:10:00;5.20;99.90
19200;DHT22;9732;52.498;5.408;2024-01-06T07:12:27;5.20;99.90
19200;DHT22;9732;52.498;5.408;2024-01-06T07:14:54;5.20;99.90
19200;DHT22;9732;52.498;5.408;2024-01-06T07:17:22;5.10;99.90
19200;DHT22;9732;52.498;5.408;2024-01-06T07:19:50;5.10;99.90
19200;DHT22;9732;52.498;5.408;2024-01-06T07:22:17;5.10;99.90
19200;DHT22;9732;52.498;5.408;2024-01-06T07:24:45;5.20;99.90
19200;DHT22;9732;52.498;5.408;2024-01-06T07:27:12;5.10;99.90
19200;DHT22;9732;52.498;5.408;2024-01-06T07:29:38;5.10;99.90
19200;DHT22;9732;52.498;5.408;2024-01-06T07:32:06;5.10;99.90
19200;DHT22;9732;52.498;5.408;2024-01-06T07:34:34;5.10;99.90
19200;DHT22;9732;52.498;5.408;2024-01-06T07:37:00;5.10;99.90
19200;DHT22;9732;52.498;5.408;2024-01-06T07:39:27;5.10;99.90
19200;DHT22;9732;52.498;5.408;2024-01-06T07:41:54;5.10;99.90
19200;DHT22;9732;52.498;5.408;2024-01-06T07:44:22;5.00;99.90
19200;DHT22;9732;52.498;5.408;2024-01-06T07:46:50;5.00;99.90
19200;DHT22;9732;52.498;5.408;2024-01-06T07:49:16;5.00;99.90
19200;DHT22;9732;52.498;5.408;2024-01-06T07:51:45;5.10;99.90
19200;DHT22;9732;52.498;5.408;2024-01-06T07:54:11;5.10;99.90
19200;DHT22;9732;52.498;5.408;2024-01-06T07:56:38;5.20;99.90
19200;DHT22;9732;52.498;5.408;2024-01-06T07:59:05;5.00;99.90
19200;DHT22;9732;52.498;5.408;2024-01-06T08:01:32;5.10;99.90
19200;DHT22;9732;52.498;5.408;2024-01-06T08:03:59;5.10;99.90
19200;DHT22;9732;52.498;5.408;2024-01-06T08:06:26;5.10;99.90
19200;DHT22;9732;52.498;5.408;2024-01-06T08:08:54;5.20;99.90
19200;DHT22;9732;52.498;5.408;2024-01-06T08:11:21;5.20;99.90
19200;DHT22;9732;52.498;5.408;2024-01-06T08:13:48;5.20;99.90
19200;DHT22;9732;52.498;5.408;2024-01-06T08:16:14;5.20;99.90
19200;DHT22;9732;52.498;5.408;2024-01-06T08:18:41;5.20;99.90
19200;DHT22;9732;52.498;5.408;2024-01-06T08:21:08;5.10;99.90
19200;DHT22;9732;52.498;5.408;2024-01-06T08:23:36;5.20;99.90
19200;DHT22;9732;52.498;5.408;2024-01-06T08:26:05;5.20;99.90
19200;DHT22;9732;52.498;5.408;2024-01-06T08:28:32;5.20;99.90
19200;DHT22;9732;52.498;5.408;2024-01-06T08:30:59;5.20;99.90
19200;DHT22;9732;52.498;5.408;2024-01-06T08:33:26;5.30;99.90
19200;DHT22;9732;52.498;5.408;2024-01-06T08:35:53;5.30;99.90
19200;DHT22;9732;52.498;5.408;2024-01-06T08:38:20;5.30;99.90
19200;DHT22;9732;52.498;5.408;2024-01-06T08:40:48;5.30;99.90
19200;DHT22;9732;52.498;5.408;2024-01-06T08:43:18;5.30;99.90
19200;DHT22;9732;52.498;5.408;2024-01-06T08:45:45;5.30;99.90
19200;DHT22;9732;52.498;5.408;2024-01-06T08:48:13;5.30;99.90
19200;DHT22;9732;52.498;5.408;2024-01-06T08:50:40;5.30;99.90
19200;DHT22;9732;52.498;5.408;2024-01-06T08:53:07;5.30;99.90
19200;DHT22;9732;52.498;5.408;2024-01-06T08:55:35;5.30;99.90
19200;DHT22;9732;52.498;5.408;2024-01-06T08:58:04;5.20;99.90
19200;DHT22;9732;52.498;5.408;2024-01-06T09:00:33;5.20;99.90
19200;DHT22;9732;52.498;5.408;2024-01-06T09:03:00;5.10;99.90
19200;DHT22;9732;52.498;5.408;2024-01-06T09:05:27;5.20;99.90
19200;DHT22;9732;52.498;5.408;2024-01-06T09:07:54;5.20;99.90
19200;DHT22;9732;52.498;5.408;2024-01-06T09:10:20;5.10;99.90
19200;DHT22;9732;52.498;5.408;2024-01-06T09:12:47;5.20;99.90
19200;DHT22;9732;52.498;5.408;2024-01-06T09:15:14;5.20;99.90
19200;DHT22;9732;52.498;5.408;2024-01-06T09:17:42;5.10;99.90
19200;DHT22;9732;52.498;5.408;2024-01-06T09:20:10;5.10;99.90
19200;DHT22;9732;52.498;5.408;2024-01-06T09:22:36;5.20;99.90
19200;DHT22;9732;52.498;5.408;2024-01-06T09:25:04;5.10;99.90
19200;DHT22;9732;52.498;5.408;2024-01-06T09:27:31;5.10;99.90
19200;DHT22;9732;52.498;5.408;2024-01-06T09:29:58;5.10;99.90
19200;DHT22;9732;52.498;5.408;2024-01-06T09:32:25;5.20;99.90
19200;DHT22;9732;52.498;5.408;2024-01-06T09:34:53;5.20;99.90
19200;DHT22;9732;52.498;5.408;2024-01-06T09:37:20;5.20;99.90
19200;DHT22;9732;52.498;5.408;2024-01-06T09:39:47;5.20;99.90
19200;DHT22;9732;52.498;5.408;2024-01-06T09:42:14;5.20;99.90
19200;DHT22;9732;52.498;5.408;2024-01-06T09:44:41;5.20;99.90
19200;DHT22;9732;52.498;5.408;2024-01-06T09:47:11;5.30;99.90
19200;DHT22;9732;52.498;5.408;2024-01-06T09:49:38;5.20;99.90
19200;DHT22;9732;52.498;5.408;2024-01-06T09:52:13;5.20;99.90
19200;DHT22;9732;52.498;5.408;2024-01-06T09:54:46;5.30;99.90
19200;DHT22;9732;52.498;5.408;2024-01-06T09:57:15;5.30;99.90
19200;DHT22;9732;52.498;5.408;2024-01-06T09:59:44;5.20;99.90
19200;DHT22;9732;52.498;5.408;2024-01-06T10:02:14;5.20;99.90
19200;DHT22;9732;52.498;5.408;2024-01-06T10:04:41;5.10;99.90
19200;DHT22;9732;52.498;5.408;2024-01-06T10:07:10;5.20;99.90
19200;DHT22;9732;52.498;5.408;2024-01-06T10:09:39;5.10;99.90
19200;DHT22;9732;52.498;5.408;2024-01-06T10:12:07;5.10;99.90
19200;DHT22;9732;52.498;5.408;2024-01-06T10:14:33;5.10;99.90
19200;DHT22;9732;52.498;5.408;2024-01-06T10:17:01;5.10;99.90
19200;DHT22;9732;52.498;5.408;2024-01-06T10:19:29;5.10;99.90
19200;DHT22;9732;52.498;5.408;2024-01-06T10:21:56;5.20;99.90
19200;DHT22;9732;52.498;5.408;2024-01-06T10:24:27;5.20;99.90
19200;DHT22;9732;52.498;5.408;2024-01-06T10:26:54;5.20;99.90
19200;DHT22;9732;52.498;5.408;2024-01-06T10:29:20;5.10;99.90
19200;DHT22;9732;52.498;5.408;2024-01-06T10:31:47;5.10;99.90
19200;DHT22;9732;52.498;5.408;2024-01-06T10:34:15;5.10;99.90
19200;DHT22;9732;52.498;5.408;2024-01-06T10:36:42;5.10;99.90
19200;DHT22;9732;52.498;5.408;2024-01-06T10:39:11;5.10;99.90
19200;DHT22;9732;52.498;5.408;2024-01-06T10:41:43;5.10;99.90
19200;DHT22;9732;52.498;5.408;2024-01-06T10:44:10;5.10;99.90
19200;DHT22;9732;52.498;5.408;2024-01-06T10:46:38;5.10;99.90
19200;DHT22;9732;52.498;5.408;2024-01-06T10:49:06;5.10;99.90
19200;DHT22;9732;52.498;5.408;2024-01-06T10:51:36;5.10;99.90
19200;DHT22;9732;52.498;5.408;2024-01-06T10:54:05;5.10;99.90
19200;DHT22;9732;52.498;5.408;2024-01-06T10:56:36;5.20;99.90
19200;DHT22;9732;52.498;5.408;2024-01-06T10:59:05;5.20;99.90
19200;DHT22;9732;52.498;5.408;2024-01-06T11:01:33;5.20;99.90
19200;DHT22;9732;52.498;5.408;2024-01-06T11:04:02;5.10;99.90
19200;DHT22;9732;52.498;5.408;2024-01-06T11:06:30;5.10;99.90
19200;DHT22;9732;52.498;5.408;2024-01-06T11:09:04;5.10;99.90
19200;DHT22;9732;52.498;5.408;2024-01-06T11:11:34;5.10;99.90
19200;DHT22;9732;52.498;5.408;2024-01-06T11:14:22;5.10;99.90
19200;DHT22;9732;52.498;5.408;2024-01-06T11:16:50;5.10;99.90
19200;DHT22;9732;52.498;5.408;2024-01-06T11:19:43;5.10;99.90
19200;DHT22;9732;52.498;5.408;2024-01-06T11:22:28;5.10;99.90
19200;DHT22;9732;52.498;5.408;2024-01-06T11:25:03;5.10;99.90
19200;DHT22;9732;52.498;5.408;2024-01-06T11:27:31;5.10;99.90
19200;DHT22;9732;52.498;5.408;2024-01-06T11:30:01;5.20;99.90
19200;DHT22;9732;52.498;5.408;2024-01-06T11:32:31;5.20;99.90
19200;DHT22;9732;52.498;5.408;2024-01-06T11:35:11;5.10;99.90
19200;DHT22;9732;52.498;5.408;2024-01-06T11:37:51;5.10;99.90
19200;DHT22;9732;52.498;5.408;2024-01-06T11:40:27;5.10;99.90
19200;DHT22;9732;52.498;5.408;2024-01-06T11:43:00;5.10;99.90
19200;DHT22;9732;52.498;5.408;2024-01-06T11:45:29;5.00;99.90
19200;DHT22;9732;52.498;5.408;2024-01-06T11:47:57;5.00;99.90
19200;DHT22;9732;52.498;5.408;2024-01-06T11:50:25;5.00;99.90
19200;DHT22;9732;52.498;5.408;2024-01-06T11:52:52;5.00;99.90
19200;DHT22;9732;52.498;5.408;2024-01-06T11:55:19;5.00;99.90
19200;DHT22;9732;52.498;5.408;2024-01-06T11:57:46;5.00;99.90
19200;DHT22;9732;52.498;5.408;2024-01-06T12:00:15;5.00;99.90
19200;DHT22;9732;52.498;5.408;2024-01-06T12:02:43;5.00;99.90
19200;DHT22;9732;52.498;5.408;2024-01-06T12:05:14;5.10;99.90
19200;DHT22;9732;52.498;5.408;2024-01-06T12:07:41;5.10;99.90
19200;DHT22;9732;52.498;5.408;2024-01-06T12:10:09;5.10;99.90
19200;DHT22;9732;52.498;5.408;2024-01-06T12:12:37;5.00;99.90
19200;DHT22;9732;52.498;5.408;2024-01-06T12:15:05;5.00;99.90
19200;DHT22;9732;52.498;5.408;2024-01-06T12:17:34;5.00;99.90
19200;DHT22;9732;52.498;5.408;2024-01-06T12:20:03;5.00;99.90
19200;DHT22;9732;52.498;5.408;2024-01-06T12:22:30;5.00;99.90
19200;DHT22;9732;52.498;5.408;2024-01-06T12:24:58;5.00;99.90
19200;DHT22;9732;52.498;5.408;2024-01-06T12:27:25;5.10;99.90
19200;DHT22;9732;52.498;5.408;2024-01-06T12:29:52;5.10;99.90
19200;DHT22;9732;52.498;5.408;2024-01-06T12:32:19;5.00;99.90
19200;DHT22;9732;52.498;5.408;2024-01-06T12:34:46;5.00;99.90
19200;DHT22;9732;52.498;5.408;2024-01-06T12:37:14;5.10;99.90
19200;DHT22;9732;52.498;5.408;2024-01-06T12:39:43;5.00;99.90
19200;DHT22;9732;52.498;5.408;2024-01-06T12:42:10;5.00;99.90
19200;DHT22;9732;52.498;5.408;2024-01-06T12:44:37;5.00;99.90
19200;DHT22;9732;52.498;5.408;2024-01-06T12:47:05;5.00;99.90
19200;DHT22;9732;52.498;5.408;2024-01-06T12:49:32;5.00;99.90
19200;DHT22;9732;52.498;5.408;2024-01-06T12:51:58;5.00;99.90
19200;DHT22;9732;52.498;5.408;2024-01-06T12:54:26;5.00;99.90
19200;DHT22;9732;52.498;5.408;2024-01-06T12:56:53;5.00;99.90
19200;DHT22;9732;52.498;5.408;2024-01-06T12:59:20;5.00;99.90
19200;DHT22;9732;52.498;5.408;2024-01-06T13:01:46;5.00;99.90
19200;DHT22;9732;52.498;5.408;2024-01-06T13:04:15;5.10;99.90
19200;DHT22;9732;52.498;5.408;2024-01-06T13:06:42;5.00;99.90
19200;DHT22;9732;52.498;5.408;2024-01-06T13:09:09;5.00;99.90
19200;DHT22;9732;52.498;5.408;2024-01-06T13:11:42;5.00;99.90
19200;DHT22;9732;52.498;5.408;2024-01-06T13:14:11;4.90;99.90
19200;DHT22;9732;52.498;5.408;2024-01-06T13:16:38;5.00;99.90
19200;DHT22;9732;52.498;5.408;2024-01-06T13:19:05;5.00;99.90
19200;DHT22;9732;52.498;5.408;2024-01-06T13:21:31;5.00;99.90
19200;DHT22;9732;52.498;5.408;2024-01-06T13:23:59;5.00;99.90
19200;DHT22;9732;52.498;5.408;2024-01-06T13:26:28;4.90;99.90
19200;DHT22;9732;52.498;5.408;2024-01-06T13:28:56;5.00;99.90
19200;DHT22;9732;52.498;5.408;2024-01-06T13:31:23;5.00;99.90
19200;DHT22;9732;52.498;5.408;2024-01-06T13:33:50;5.10;99.90
19200;DHT22;9732;52.498;5.408;2024-01-06T13:36:17;5.10;99.90
19200;DHT22;9732;52.498;5.408;2024-01-06T13:38:44;5.10;99.90
19200;DHT22;9732;52.498;5.408;2024-01-06T13:41:11;5.00;99.90
19200;DHT22;9732;52.498;5.408;2024-01-06T13:43:37;5.00;99.90
19200;DHT22;9732;52.498;5.408;2024-01-06T13:46:06;5.10;99.90
19200;DHT22;9732;52.498;5.408;2024-01-06T13:48:32;5.10;99.90
19200;DHT22;9732;52.498;5.408;2024-01-06T13:50:59;5.00;99.90
19200;DHT22;9732;52.498;5.408;2024-01-06T13:53:26;5.10;99.90
19200;DHT22;9732;52.498;5.408;2024-01-06T13:55:53;5.10;99.90
19200;DHT22;9732;52.498;5.408;2024-01-06T13:58:20;5.00;99.90
19200;DHT22;9732;52.498;5.408;2024-01-06T14:00:47;5.00;99.90
19200;DHT22;9732;52.498;5.408;2024-01-06T14:03:15;5.00;99.90
19200;DHT22;9732;52.498;5.408;2024-01-06T14:05:42;5.10;99.90
19200;DHT22;9732;52.498;5.408;2024-01-06T14:08:09;5.10;99.90
19200;DHT22;9732;52.498;5.408;2024-01-06T14:10:35;5.00;99.90
19200;DHT22;9732;52.498;5.408;2024-01-06T14:13:03;5.00;99.90
19200;DHT22;9732;52.498;5.408;2024-01-06T14:15:30;4.90;99.90
19200;DHT22;9732;52.498;5.408;2024-01-06T14:17:58;4.90;99.90
19200;DHT22;9732;52.498;5.408;2024-01-06T14:20:27;5.00;99.90
19200;DHT22;9732;52.498;5.408;2024-01-06T14:22:55;5.10;99.90
19200;DHT22;9732;52.498;5.408;2024-01-06T14:25:22;5.00;99.90
19200;DHT22;9732;52.498;5.408;2024-01-06T14:27:49;5.00;99.90
19200;DHT22;9732;52.498;5.408;2024-01-06T14:30:17;5.00;99.90
19200;DHT22;9732;52.498;5.408;2024-01-06T14:32:45;5.10;99.90
19200;DHT22;9732;52.498;5.408;2024-01-06T14:35:12;5.10;99.90
19200;DHT22;9732;52.498;5.408;2024-01-06T14:37:41;5.30;99.90
19200;DHT22;9732;52.498;5.408;2024-01-06T14:40:11;5.10;99.90
19200;DHT22;9732;52.498;5.408;2024-01-06T14:42:38;5.10;99.90
19200;DHT22;9732;52.498;5.408;2024-01-06T14:45:05;5.20;99.90
19200;DHT22;9732;52.498;5.408;2024-01-06T14:47:33;5.30;99.90
19200;DHT22;9732;52.498;5.408;2024-01-06T14:50:00;5.30;99.90
19200;DHT22;9732;52.498;5.408;2024-01-06T14:52:27;5.30;99.90
19200;DHT22;9732;52.498;5.408;2024-01-06T14:54:55;5.20;99.90
19200;DHT22;9732;52.498;5.408;2024-01-06T14:57:22;5.20;99.90
19200;DHT22;9732;52.498;5.408;2024-01-06T14:59:49;5.20;99.90
19200;DHT22;9732;52.498;5.408;2024-01-06T15:02:15;5.30;99.90
19200;DHT22;9732;52.498;5.408;2024-01-06T15:04:42;5.10;99.90
19200;DHT22;9732;52.498;5.408;2024-01-06T15:07:09;5.10;99.90
19200;DHT22;9732;52.498;5.408;2024-01-06T15:09:38;5.10;99.90
19200;DHT22;9732;52.498;5.408;2024-01-06T15:12:07;5.20;99.90
19200;DHT22;9732;52.498;5.408;2024-01-06T15:14:34;5.20;99.90
19200;DHT22;9732;52.498;5.408;2024-01-06T15:17:01;5.20;99.90
19200;DHT22;9732;52.498;5.408;2024-01-06T15:19:27;5.10;99.90
19200;DHT22;9732;52.498;5.408;2024-01-06T15:21:56;5.10;99.90
19200;DHT22;9732;52.498;5.408;2024-01-06T15:24:23;5.10;99.90
19200;DHT22;9732;52.498;5.408;2024-01-06T15:26:50;5.10;99.90
19200;DHT22;9732;52.498;5.408;2024-01-06T15:29:19;5.10;99.90
19200;DHT22;9732;52.498;5.408;2024-01-06T15:31:46;5.10;99.90
19200;DHT22;9732;52.498;5.408;2024-01-06T15:34:13;5.10;99.90
19200;DHT22;9732;52.498;5.408;2024-01-06T15:36:39;5.00;99.90
19200;DHT22;9732;52.498;5.408;2024-01-06T15:39:06;5.10;99.90
19200;DHT22;9732;52.498;5.408;2024-01-06T15:41:33;5.20;99.90
19200;DHT22;9732;52.498;5.408;2024-01-06T15:44:00;5.10;99.90
19200;DHT22;9732;52.498;5.408;2024-01-06T15:46:28;5.10;99.90
19200;DHT22;9732;52.498;5.408;2024-01-06T15:48:54;5.00;99.90
19200;DHT22;9732;52.498;5.408;2024-01-06T15:51:21;5.00;99.90
19200;DHT22;9732;52.498;5.408;2024-01-06T15:53:48;5.00;99.90
19200;DHT22;9732;52.498;5.408;2024-01-06T15:56:15;5.00;99.90
19200;DHT22;9732;52.498;5.408;2024-01-06T15:58:41;5.00;99.90
19200;DHT22;9732;52.498;5.408;2024-01-06T16:01:08;4.90;99.90
19200;DHT22;9732;52.498;5.408;2024-01-06T16:03:36;4.80;99.90
19200;DHT22;9732;52.498;5.408;2024-01-06T16:06:03;4.90;99.90